sensor_id;sensor_type;location;lat;lon;timestamp;P1;durP1;ratioP1;P2;durP2;ratioP2
75061;SDS011;63641;46.526;24.612;2023-06-22T00:03:58;13.48;;;11.60;;
75061;SDS011;63641;46.526;24.612;2023-06-22T00:06:26;12.18;;;11.07;;
75061;SDS011;63641;46.526;24.612;2023-06-22T00:08:52;11.55;;;10.40;;
75061;SDS011;63641;46.526;24.612;2023-06-22T00:11:19;11.85;;;10.75;;
75061;SDS011;63641;46.526;24.612;2023-06-22T00:13:46;12.55;;;11.45;;
75061;SDS011;63641;46.526;24.612;2023-06-22T00:16:14;12.05;;;10.95;;
75061;SDS011;63641;46.526;24.612;2023-06-22T00:18:41;11.25;;;10.23;;
75061;SDS011;63641;46.526;24.612;2023-06-22T00:21:13;12.55;;;11.55;;
75061;SDS011;63641;46.526;24.612;2023-06-22T00:23:40;11.75;;;10.75;;
75061;SDS011;63641;46.526;24.612;2023-06-22T00:26:07;11.95;;;10.93;;
75061;SDS011;63641;46.526;24.612;2023-06-22T00:28:34;12.23;;;10.90;;
75061;SDS011;63641;46.526;24.612;2023-06-22T00:31:01;13.13;;;11.43;;
75061;SDS011;63641;46.526;24.612;2023-06-22T00:33:28;11.75;;;10.55;;
75061;SDS011;63641;46.526;24.612;2023-06-22T00:35:57;12.18;;;11.07;;
75061;SDS011;63641;46.526;24.612;2023-06-22T00:38:23;12.88;;;11.70;;
75061;SDS011;63641;46.526;24.612;2023-06-22T00:40:50;11.50;;;10.40;;
75061;SDS011;63641;46.526;24.612;2023-06-22T00:43:17;12.23;;;11.07;;
75061;SDS011;63641;46.526;24.612;2023-06-22T00:45:44;12.40;;;11.20;;
75061;SDS011;63641;46.526;24.612;2023-06-22T00:48:11;12.95;;;11.73;;
75061;SDS011;63641;46.526;24.612;2023-06-22T00:50:39;12.63;;;11.52;;
75061;SDS011;63641;46.526;24.612;2023-06-22T00:53:07;13.05;;;11.77;;
75061;SDS011;63641;46.526;24.612;2023-06-22T00:55:41;13.07;;;11.88;;
75061;SDS011;63641;46.526;24.612;2023-06-22T00:58:13;13.43;;;12.05;;
75061;SDS011;63641;46.526;24.612;2023-06-22T01:00:40;12.68;;;11.38;;
75061;SDS011;63641;46.526;24.612;2023-06-22T01:03:08;12.85;;;11.75;;
75061;SDS011;63641;46.526;24.612;2023-06-22T01:05:36;13.30;;;12.15;;
75061;SDS011;63641;46.526;24.612;2023-06-22T01:10:59;12.82;;;11.63;;
75061;SDS011;63641;46.526;24.612;2023-06-22T01:16:30;13.18;;;11.98;;
75061;SDS011;63641;46.526;24.612;2023-06-22T01:19:00;13.18;;;12.07;;
75061;SDS011;63641;46.526;24.612;2023-06-22T01:21:33;12.95;;;11.75;;
75061;SDS011;63641;46.526;24.612;2023-06-22T01:26:42;12.93;;;11.82;;
75061;SDS011;63641;46.526;24.612;2023-06-22T01:29:18;13.00;;;11.70;;
75061;SDS011;63641;46.526;24.612;2023-06-22T01:31:47;11.95;;;10.75;;
75061;SDS011;63641;46.526;24.612;2023-06-22T01:34:16;12.02;;;10.77;;
75061;SDS011;63641;46.526;24.612;2023-06-22T01:36:44;11.27;;;10.13;;
75061;SDS011;63641;46.526;24.612;2023-06-22T01:39:12;11.15;;;10.13;;
75061;SDS011;63641;46.526;24.612;2023-06-22T01:41:40;12.68;;;11.57;;
75061;SDS011;63641;46.526;24.612;2023-06-22T01:44:09;12.07;;;10.93;;
75061;SDS011;63641;46.526;24.612;2023-06-22T01:46:37;11.52;;;10.35;;
75061;SDS011;63641;46.526;24.612;2023-06-22T01:49:06;11.60;;;10.50;;
75061;SDS011;63641;46.526;24.612;2023-06-22T01:51:34;14.10;;;11.77;;
75061;SDS011;63641;46.526;24.612;2023-06-22T01:54:01;11.40;;;10.40;;
75061;SDS011;63641;46.526;24.612;2023-06-22T01:56:28;10.43;;;9.52;;
75061;SDS011;63641;46.526;24.612;2023-06-22T02:02:07;11.52;;;10.45;;
75061;SDS011;63641;46.526;24.612;2023-06-22T02:04:42;11.05;;;9.88;;
75061;SDS011;63641;46.526;24.612;2023-06-22T02:07:13;10.57;;;9.63;;
75061;SDS011;63641;46.526;24.612;2023-06-22T02:09:44;14.00;;;11.35;;
75061;SDS011;63641;46.526;24.612;2023-06-22T02:12:12;12.27;;;11.10;;
75061;SDS011;63641;46.526;24.612;2023-06-22T02:14:43;12.20;;;11.07;;
75061;SDS011;63641;46.526;24.612;2023-06-22T02:17:13;12.73;;;11.57;;
75061;SDS011;63641;46.526;24.612;2023-06-22T02:19:43;13.40;;;12.02;;
75061;SDS011;63641;46.526;24.612;2023-06-22T02:22:10;13.15;;;12.05;;
75061;SDS011;63641;46.526;24.612;2023-06-22T02:24:37;11.88;;;10.88;;
75061;SDS011;63641;46.526;24.612;2023-06-22T02:27:06;12.55;;;11.40;;
75061;SDS011;63641;46.526;24.612;2023-06-22T02:29:33;13.35;;;12.15;;
75061;SDS011;63641;46.526;24.612;2023-06-22T02:32:00;12.35;;;11.15;;
75061;SDS011;63641;46.526;24.612;2023-06-22T02:34:27;12.57;;;11.48;;
75061;SDS011;63641;46.526;24.612;2023-06-22T02:36:54;12.85;;;11.55;;
75061;SDS011;63641;46.526;24.612;2023-06-22T02:39:22;13.38;;;12.05;;
75061;SDS011;63641;46.526;24.612;2023-06-22T02:41:50;12.13;;;11.13;;
75061;SDS011;63641;46.526;24.612;2023-06-22T02:44:17;12.18;;;11.07;;
75061;SDS011;63641;46.526;24.612;2023-06-22T02:46:45;12.90;;;11.77;;
75061;SDS011;63641;46.526;24.612;2023-06-22T02:49:13;12.07;;;11.07;;
75061;SDS011;63641;46.526;24.612;2023-06-22T02:51:41;12.60;;;11.50;;
75061;SDS011;63641;46.526;24.612;2023-06-22T02:54:11;11.43;;;10.43;;
75061;SDS011;63641;46.526;24.612;2023-06-22T02:56:38;13.27;;;12.07;;
75061;SDS011;63641;46.526;24.612;2023-06-22T02:59:07;13.10;;;11.85;;
75061;SDS011;63641;46.526;24.612;2023-06-22T03:01:34;13.10;;;11.95;;
75061;SDS011;63641;46.526;24.612;2023-06-22T03:04:07;13.48;;;12.07;;
75061;SDS011;63641;46.526;24.612;2023-06-22T03:06:34;14.07;;;12.77;;
75061;SDS011;63641;46.526;24.612;2023-06-22T03:09:03;12.80;;;11.60;;
75061;SDS011;63641;46.526;24.612;2023-06-22T03:11:32;12.30;;;11.20;;
75061;SDS011;63641;46.526;24.612;2023-06-22T03:14:02;14.65;;;12.50;;
75061;SDS011;63641;46.526;24.612;2023-06-22T03:16:29;12.88;;;11.68;;
75061;SDS011;63641;46.526;24.612;2023-06-22T03:18:56;12.65;;;11.27;;
75061;SDS011;63641;46.526;24.612;2023-06-22T03:21:23;12.32;;;11.18;;
75061;SDS011;63641;46.526;24.612;2023-06-22T03:23:50;12.45;;;11.25;;
75061;SDS011;63641;46.526;24.612;2023-06-22T03:26:17;14.15;;;12.02;;
75061;SDS011;63641;46.526;24.612;2023-06-22T03:28:44;12.63;;;11.23;;
75061;SDS011;63641;46.526;24.612;2023-06-22T03:31:12;12.27;;;11.07;;
75061;SDS011;63641;46.526;24.612;2023-06-22T03:33:39;12.48;;;11.38;;
75061;SDS011;63641;46.526;24.612;2023-06-22T03:36:05;13.00;;;11.80;;
75061;SDS011;63641;46.526;24.612;2023-06-22T03:38:32;12.43;;;11.23;;
75061;SDS011;63641;46.526;24.612;2023-06-22T03:40:59;12.55;;;11.55;;
75061;SDS011;63641;46.526;24.612;2023-06-22T03:43:26;13.02;;;11.80;;
75061;SDS011;63641;46.526;24.612;2023-06-22T03:45:56;13.30;;;11.15;;
75061;SDS011;63641;46.526;24.612;2023-06-22T03:48:23;12.65;;;11.55;;
75061;SDS011;63641;46.526;24.612;2023-06-22T03:50:50;12.38;;;11.15;;
75061;SDS011;63641;46.526;24.612;2023-06-22T03:53:17;12.15;;;11.13;;
75061;SDS011;63641;46.526;24.612;2023-06-22T03:55:48;12.25;;;11.05;;
75061;SDS011;63641;46.526;24.612;2023-06-22T03:58:17;12.77;;;11.68;;
75061;SDS011;63641;46.526;24.612;2023-06-22T04:00:46;12.20;;;11.20;;
75061;SDS011;63641;46.526;24.612;2023-06-22T04:03:16;12.65;;;11.38;;
75061;SDS011;63641;46.526;24.612;2023-06-22T04:05:45;12.07;;;10.65;;
75061;SDS011;63641;46.526;24.612;2023-06-22T04:08:13;11.55;;;10.48;;
75061;SDS011;63641;46.526;24.612;2023-06-22T04:10:42;12.20;;;11.02;;
75061;SDS011;63641;46.526;24.612;2023-06-22T04:13:09;11.82;;;10.70;;
75061;SDS011;63641;46.526;24.612;2023-06-22T04:15:36;12.95;;;11.85;;
75061;SDS011;63641;46.526;24.612;2023-06-22T04:18:03;11.15;;;10.23;;
75061;SDS011;63641;46.526;24.612;2023-06-22T04:20:31;11.50;;;10.50;;
75061;SDS011;63641;46.526;24.612;2023-06-22T04:22:58;11.48;;;10.48;;
75061;SDS011;63641;46.526;24.612;2023-06-22T04:25:25;12.00;;;10.95;;
75061;SDS011;63641;46.526;24.612;2023-06-22T04:27:52;11.18;;;10.18;;
75061;SDS011;63641;46.526;24.612;2023-06-22T04:30:19;10.68;;;9.77;;
75061;SDS011;63641;46.526;24.612;2023-06-22T04:32:45;11.35;;;10.35;;
75061;SDS011;63641;46.526;24.612;2023-06-22T04:35:24;10.90;;;9.85;;
75061;SDS011;63641;46.526;24.612;2023-06-22T04:37:52;10.57;;;9.68;;
75061;SDS011;63641;46.526;24.612;2023-06-22T04:40:24;10.32;;;9.43;;
75061;SDS011;63641;46.526;24.612;2023-06-22T04:42:51;11.35;;;10.32;;
75061;SDS011;63641;46.526;24.612;2023-06-22T04:45:19;19.00;;;12.55;;
75061;SDS011;63641;46.526;24.612;2023-06-22T04:47:47;13.00;;;11.80;;
75061;SDS011;63641;46.526;24.612;2023-06-22T04:50:14;11.18;;;10.18;;
75061;SDS011;63641;46.526;24.612;2023-06-22T04:52:41;9.82;;;8.85;;
75061;SDS011;63641;46.526;24.612;2023-06-22T04:55:08;9.18;;;8.48;;
75061;SDS011;63641;46.526;24.612;2023-06-22T04:57:35;10.07;;;9.05;;
75061;SDS011;63641;46.526;24.612;2023-06-22T05:00:05;9.20;;;8.32;;
75061;SDS011;63641;46.526;24.612;2023-06-22T05:02:39;9.27;;;8.48;;
75061;SDS011;63641;46.526;24.612;2023-06-22T05:05:07;8.88;;;8.07;;
75061;SDS011;63641;46.526;24.612;2023-06-22T05:07:34;9.38;;;8.57;;
75061;SDS011;63641;46.526;24.612;2023-06-22T05:10:01;10.40;;;9.40;;
75061;SDS011;63641;46.526;24.612;2023-06-22T05:12:29;11.65;;;8.25;;
75061;SDS011;63641;46.526;24.612;2023-06-22T05:14:56;9.65;;;8.80;;
75061;SDS011;63641;46.526;24.612;2023-06-22T05:17:24;9.60;;;8.70;;
75061;SDS011;63641;46.526;24.612;2023-06-22T05:19:51;9.32;;;8.43;;
75061;SDS011;63641;46.526;24.612;2023-06-22T05:22:17;8.98;;;8.13;;
75061;SDS011;63641;46.526;24.612;2023-06-22T05:24:45;8.35;;;7.65;;
75061;SDS011;63641;46.526;24.612;2023-06-22T05:27:13;8.82;;;7.93;;
75061;SDS011;63641;46.526;24.612;2023-06-22T05:29:40;8.20;;;7.60;;
75061;SDS011;63641;46.526;24.612;2023-06-22T05:32:06;8.55;;;7.75;;
75061;SDS011;63641;46.526;24.612;2023-06-22T05:34:33;8.77;;;7.97;;
75061;SDS011;63641;46.526;24.612;2023-06-22T05:37:00;8.32;;;7.57;;
75061;SDS011;63641;46.526;24.612;2023-06-22T05:39:28;8.07;;;7.38;;
75061;SDS011;63641;46.526;24.612;2023-06-22T05:41:55;7.90;;;7.30;;
75061;SDS011;63641;46.526;24.612;2023-06-22T05:44:22;8.15;;;7.38;;
75061;SDS011;63641;46.526;24.612;2023-06-22T05:46:48;7.95;;;7.25;;
75061;SDS011;63641;46.526;24.612;2023-06-22T05:49:16;8.40;;;6.70;;
75061;SDS011;63641;46.526;24.612;2023-06-22T05:51:42;7.70;;;7.00;;
75061;SDS011;63641;46.526;24.612;2023-06-22T05:54:09;7.20;;;6.45;;
75061;SDS011;63641;46.526;24.612;2023-06-22T05:56:36;7.90;;;7.28;;
75061;SDS011;63641;46.526;24.612;2023-06-22T05:59:04;7.57;;;6.97;;
75061;SDS011;63641;46.526;24.612;2023-06-22T06:01:30;8.52;;;7.50;;
75061;SDS011;63641;46.526;24.612;2023-06-22T06:04:02;7.78;;;7.07;;
75061;SDS011;63641;46.526;24.612;2023-06-22T06:06:36;8.25;;;7.25;;
75061;SDS011;63641;46.526;24.612;2023-06-22T06:09:04;8.00;;;7.28;;
75061;SDS011;63641;46.526;24.612;2023-06-22T06:11:31;9.10;;;7.55;;
75061;SDS011;63641;46.526;24.612;2023-06-22T06:13:57;9.82;;;7.50;;
75061;SDS011;63641;46.526;24.612;2023-06-22T06:16:24;7.80;;;7.10;;
75061;SDS011;63641;46.526;24.612;2023-06-22T06:18:51;8.25;;;7.50;;
75061;SDS011;63641;46.526;24.612;2023-06-22T06:21:19;9.43;;;7.63;;
75061;SDS011;63641;46.526;24.612;2023-06-22T06:23:46;12.00;;;10.85;;
75061;SDS011;63641;46.526;24.612;2023-06-22T06:26:13;8.25;;;7.55;;
75061;SDS011;63641;46.526;24.612;2023-06-22T06:28:43;7.75;;;7.05;;
75061;SDS011;63641;46.526;24.612;2023-06-22T06:31:10;8.02;;;7.22;;
75061;SDS011;63641;46.526;24.612;2023-06-22T06:33:38;8.68;;;7.88;;
75061;SDS011;63641;46.526;24.612;2023-06-22T06:36:08;10.13;;;7.95;;
75061;SDS011;63641;46.526;24.612;2023-06-22T06:38:35;8.40;;;7.78;;
75061;SDS011;63641;46.526;24.612;2023-06-22T06:41:01;8.60;;;7.70;;
75061;SDS011;63641;46.526;24.612;2023-06-22T06:43:28;9.10;;;8.18;;
75061;SDS011;63641;46.526;24.612;2023-06-22T06:45:56;8.23;;;7.53;;
75061;SDS011;63641;46.526;24.612;2023-06-22T06:48:23;8.43;;;7.63;;
75061;SDS011;63641;46.526;24.612;2023-06-22T06:50:50;8.45;;;7.72;;
75061;SDS011;63641;46.526;24.612;2023-06-22T06:53:16;8.52;;;7.80;;
75061;SDS011;63641;46.526;24.612;2023-06-22T06:55:43;8.25;;;7.55;;
75061;SDS011;63641;46.526;24.612;2023-06-22T06:58:12;8.10;;;7.40;;
75061;SDS011;63641;46.526;24.612;2023-06-22T07:00:39;7.75;;;7.15;;
75061;SDS011;63641;46.526;24.612;2023-06-22T07:03:06;7.18;;;6.53;;
75061;SDS011;63641;46.526;24.612;2023-06-22T07:05:33;7.75;;;7.05;;
75061;SDS011;63641;46.526;24.612;2023-06-22T07:08:00;8.43;;;7.70;;
75061;SDS011;63641;46.526;24.612;2023-06-22T07:10:28;8.43;;;7.30;;
75061;SDS011;63641;46.526;24.612;2023-06-22T07:12:56;7.85;;;7.05;;
75061;SDS011;63641;46.526;24.612;2023-06-22T07:15:23;7.85;;;7.25;;
75061;SDS011;63641;46.526;24.612;2023-06-22T07:17:50;8.98;;;7.93;;
75061;SDS011;63641;46.526;24.612;2023-06-22T07:20:17;8.00;;;7.30;;
75061;SDS011;63641;46.526;24.612;2023-06-22T07:22:45;7.57;;;6.85;;
75061;SDS011;63641;46.526;24.612;2023-06-22T07:25:12;8.18;;;6.90;;
75061;SDS011;63641;46.526;24.612;2023-06-22T07:27:44;8.30;;;7.60;;
75061;SDS011;63641;46.526;24.612;2023-06-22T07:30:13;7.80;;;7.05;;
75061;SDS011;63641;46.526;24.612;2023-06-22T07:32:40;8.07;;;7.38;;
75061;SDS011;63641;46.526;24.612;2023-06-22T07:35:07;8.50;;;7.70;;
75061;SDS011;63641;46.526;24.612;2023-06-22T07:37:34;9.15;;;7.78;;
75061;SDS011;63641;46.526;24.612;2023-06-22T07:40:01;7.50;;;6.90;;
75061;SDS011;63641;46.526;24.612;2023-06-22T07:42:32;7.32;;;6.72;;
75061;SDS011;63641;46.526;24.612;2023-06-22T07:44:59;8.35;;;7.57;;
75061;SDS011;63641;46.526;24.612;2023-06-22T07:47:26;7.93;;;7.28;;
75061;SDS011;63641;46.526;24.612;2023-06-22T07:49:55;8.63;;;7.93;;
75061;SDS011;63641;46.526;24.612;2023-06-22T07:52:24;8.52;;;7.72;;
75061;SDS011;63641;46.526;24.612;2023-06-22T07:54:51;7.50;;;6.82;;
75061;SDS011;63641;46.526;24.612;2023-06-22T07:57:18;7.70;;;7.00;;
75061;SDS011;63641;46.526;24.612;2023-06-22T07:59:46;8.48;;;7.70;;
75061;SDS011;63641;46.526;24.612;2023-06-22T08:02:12;8.40;;;7.70;;
75061;SDS011;63641;46.526;24.612;2023-06-22T08:04:39;7.78;;;7.07;;
75061;SDS011;63641;46.526;24.612;2023-06-22T08:07:21;7.75;;;7.05;;
75061;SDS011;63641;46.526;24.612;2023-06-22T08:09:48;8.25;;;7.55;;
75061;SDS011;63641;46.526;24.612;2023-06-22T08:14:48;8.20;;;7.60;;
75061;SDS011;63641;46.526;24.612;2023-06-22T08:17:15;7.97;;;7.28;;
75061;SDS011;63641;46.526;24.612;2023-06-22T08:19:49;8.00;;;7.30;;
75061;SDS011;63641;46.526;24.612;2023-06-22T08:22:16;8.27;;;7.43;;
75061;SDS011;63641;46.526;24.612;2023-06-22T08:24:44;7.28;;;6.60;;
75061;SDS011;63641;46.526;24.612;2023-06-22T08:27:17;8.80;;;7.90;;
75061;SDS011;63641;46.526;24.612;2023-06-22T08:29:47;9.25;;;7.53;;
75061;SDS011;63641;46.526;24.612;2023-06-22T08:32:13;7.97;;;7.28;;
75061;SDS011;63641;46.526;24.612;2023-06-22T08:34:47;9.50;;;8.60;;
75061;SDS011;63641;46.526;24.612;2023-06-22T08:37:13;8.68;;;7.78;;
75061;SDS011;63641;46.526;24.612;2023-06-22T08:39:40;8.65;;;7.85;;
75061;SDS011;63641;46.526;24.612;2023-06-22T08:42:13;8.13;;;7.47;;
75061;SDS011;63641;46.526;24.612;2023-06-22T08:44:40;7.72;;;7.03;;
75061;SDS011;63641;46.526;24.612;2023-06-22T08:47:07;8.90;;;8.20;;
75061;SDS011;63641;46.526;24.612;2023-06-22T08:49:39;8.80;;;8.10;;
75061;SDS011;63641;46.526;24.612;2023-06-22T08:52:06;9.45;;;8.35;;
75061;SDS011;63641;46.526;24.612;2023-06-22T08:54:34;13.70;;;7.55;;
75061;SDS011;63641;46.526;24.612;2023-06-22T08:57:07;8.13;;;7.43;;
75061;SDS011;63641;46.526;24.612;2023-06-22T08:59:34;8.63;;;7.80;;
75061;SDS011;63641;46.526;24.612;2023-06-22T09:02:01;8.45;;;7.57;;
75061;SDS011;63641;46.526;24.612;2023-06-22T09:04:34;8.23;;;7.43;;
75061;SDS011;63641;46.526;24.612;2023-06-22T09:09:55;7.68;;;7.05;;
75061;SDS011;63641;46.526;24.612;2023-06-22T09:12:22;7.75;;;7.13;;
75061;SDS011;63641;46.526;24.612;2023-06-22T09:14:52;7.88;;;7.18;;
75061;SDS011;63641;46.526;24.612;2023-06-22T09:17:26;8.18;;;7.38;;
75061;SDS011;63641;46.526;24.612;2023-06-22T09:19:53;8.45;;;7.28;;
75061;SDS011;63641;46.526;24.612;2023-06-22T09:22:20;7.82;;;7.22;;
75061;SDS011;63641;46.526;24.612;2023-06-22T09:24:53;7.93;;;7.32;;
75061;SDS011;63641;46.526;24.612;2023-06-22T09:27:20;7.45;;;6.85;;
75061;SDS011;63641;46.526;24.612;2023-06-22T09:29:47;8.57;;;7.07;;
75061;SDS011;63641;46.526;24.612;2023-06-22T09:34:47;9.85;;;7.35;;
75061;SDS011;63641;46.526;24.612;2023-06-22T09:37:14;8.38;;;7.65;;
75061;SDS011;63641;46.526;24.612;2023-06-22T09:39:47;8.05;;;6.93;;
75061;SDS011;63641;46.526;24.612;2023-06-22T09:42:14;7.88;;;7.18;;
75061;SDS011;63641;46.526;24.612;2023-06-22T09:44:41;7.93;;;7.03;;
75061;SDS011;63641;46.526;24.612;2023-06-22T09:47:14;7.53;;;6.90;;
75061;SDS011;63641;46.526;24.612;2023-06-22T09:49:41;7.10;;;6.50;;
75061;SDS011;63641;46.526;24.612;2023-06-22T09:52:14;7.97;;;7.28;;
75061;SDS011;63641;46.526;24.612;2023-06-22T09:54:53;8.00;;;7.10;;
75061;SDS011;63641;46.526;24.612;2023-06-22T09:57:20;7.55;;;6.95;;
75061;SDS011;63641;46.526;24.612;2023-06-22T09:59:47;7.75;;;7.15;;
75061;SDS011;63641;46.526;24.612;2023-06-22T10:04:48;7.93;;;7.00;;
75061;SDS011;63641;46.526;24.612;2023-06-22T10:07:35;7.97;;;7.28;;
75061;SDS011;63641;46.526;24.612;2023-06-22T10:10:06;7.68;;;7.07;;
75061;SDS011;63641;46.526;24.612;2023-06-22T10:12:41;7.35;;;6.75;;
75061;SDS011;63641;46.526;24.612;2023-06-22T10:15:09;8.95;;;7.13;;
75061;SDS011;63641;46.526;24.612;2023-06-22T10:17:37;8.00;;;7.35;;
75061;SDS011;63641;46.526;24.612;2023-06-22T10:22:39;7.85;;;7.15;;
75061;SDS011;63641;46.526;24.612;2023-06-22T10:25:08;7.47;;;6.82;;
75061;SDS011;63641;46.526;24.612;2023-06-22T10:27:41;7.75;;;7.05;;
75061;SDS011;63641;46.526;24.612;2023-06-22T10:30:08;7.68;;;7.07;;
75061;SDS011;63641;46.526;24.612;2023-06-22T10:32:37;6.85;;;6.35;;
75061;SDS011;63641;46.526;24.612;2023-06-22T10:35:12;7.88;;;7.10;;
75061;SDS011;63641;46.526;24.612;2023-06-22T10:37:42;8.02;;;7.35;;
75061;SDS011;63641;46.526;24.612;2023-06-22T10:40:11;7.93;;;7.10;;
75061;SDS011;63641;46.526;24.612;2023-06-22T10:42:48;7.68;;;6.90;;
75061;SDS011;63641;46.526;24.612;2023-06-22T10:45:16;7.18;;;6.60;;
75061;SDS011;63641;46.526;24.612;2023-06-22T10:47:43;7.13;;;6.60;;
75061;SDS011;63641;46.526;24.612;2023-06-22T10:50:17;8.07;;;7.32;;
75061;SDS011;63641;46.526;24.612;2023-06-22T10:52:44;8.88;;;7.63;;
75061;SDS011;63641;46.526;24.612;2023-06-22T10:55:11;8.77;;;7.95;;
75061;SDS011;63641;46.526;24.612;2023-06-22T10:57:44;7.82;;;7.20;;
75061;SDS011;63641;46.526;24.612;2023-06-22T11:00:14;8.10;;;7.47;;
75061;SDS011;63641;46.526;24.612;2023-06-22T11:02:42;8.73;;;8.02;;
75061;SDS011;63641;46.526;24.612;2023-06-22T11:07:55;8.52;;;7.47;;
75061;SDS011;63641;46.526;24.612;2023-06-22T11:10:29;8.05;;;7.40;;
75061;SDS011;63641;46.526;24.612;2023-06-22T11:12:56;7.13;;;6.63;;
75061;SDS011;63641;46.526;24.612;2023-06-22T11:15:24;7.60;;;6.90;;
75061;SDS011;63641;46.526;24.612;2023-06-22T11:17:58;6.32;;;5.82;;
75061;SDS011;63641;46.526;24.612;2023-06-22T11:20:25;7.75;;;5.95;;
75061;SDS011;63641;46.526;24.612;2023-06-22T11:22:51;7.30;;;6.28;;
75061;SDS011;63641;46.526;24.612;2023-06-22T11:25:24;6.05;;;5.47;;
75061;SDS011;63641;46.526;24.612;2023-06-22T11:27:51;6.72;;;6.13;;
75061;SDS011;63641;46.526;24.612;2023-06-22T11:30:20;6.68;;;5.85;;
75061;SDS011;63641;46.526;24.612;2023-06-22T11:32:54;6.53;;;5.88;;
75061;SDS011;63641;46.526;24.612;2023-06-22T11:35:21;6.25;;;5.75;;
75061;SDS011;63641;46.526;24.612;2023-06-22T11:37:47;9.80;;;6.22;;
75061;SDS011;63641;46.526;24.612;2023-06-22T11:40:21;6.05;;;5.45;;
75061;SDS011;63641;46.526;24.612;2023-06-22T11:42:49;5.95;;;5.45;;
75061;SDS011;63641;46.526;24.612;2023-06-22T11:45:15;6.05;;;5.65;;
75061;SDS011;63641;46.526;24.612;2023-06-22T11:47:50;6.35;;;5.75;;
75061;SDS011;63641;46.526;24.612;2023-06-22T12:16:30;7.30;;;6.43;;
75061;SDS011;63641;46.526;24.612;2023-06-22T12:19:10;5.93;;;5.32;;
75061;SDS011;63641;46.526;24.612;2023-06-22T12:21:37;6.07;;;5.68;;
75061;SDS011;63641;46.526;24.612;2023-06-22T12:24:05;5.45;;;4.95;;
75061;SDS011;63641;46.526;24.612;2023-06-22T12:26:38;5.55;;;5.15;;
75061;SDS011;63641;46.526;24.612;2023-06-22T12:29:05;8.75;;;5.28;;
75061;SDS011;63641;46.526;24.612;2023-06-22T12:31:31;5.63;;;5.10;;
75061;SDS011;63641;46.526;24.612;2023-06-22T12:34:06;5.68;;;5.18;;
75061;SDS011;63641;46.526;24.612;2023-06-22T12:36:32;8.88;;;5.93;;
75061;SDS011;63641;46.526;24.612;2023-06-22T12:38:59;6.35;;;5.40;;
75061;SDS011;63641;46.526;24.612;2023-06-22T12:41:32;5.38;;;4.88;;
75061;SDS011;63641;46.526;24.612;2023-06-22T12:43:59;5.75;;;5.22;;
75061;SDS011;63641;46.526;24.612;2023-06-22T12:46:26;5.40;;;5.00;;
75061;SDS011;63641;46.526;24.612;2023-06-22T12:48:59;6.20;;;5.70;;
75061;SDS011;63641;46.526;24.612;2023-06-22T12:51:27;6.55;;;6.03;;
75061;SDS011;63641;46.526;24.612;2023-06-22T12:53:54;6.00;;;5.47;;
75061;SDS011;63641;46.526;24.612;2023-06-22T12:58:54;6.13;;;5.60;;
75061;SDS011;63641;46.526;24.612;2023-06-22T13:01:21;5.78;;;5.25;;
75061;SDS011;63641;46.526;24.612;2023-06-22T13:03:56;6.55;;;5.85;;
75061;SDS011;63641;46.526;24.612;2023-06-22T13:06:22;5.30;;;4.90;;
75061;SDS011;63641;46.526;24.612;2023-06-22T13:08:49;5.90;;;5.03;;
75061;SDS011;63641;46.526;24.612;2023-06-22T13:11:43;6.10;;;5.68;;
75061;SDS011;63641;46.526;24.612;2023-06-22T13:14:10;5.60;;;5.20;;
75061;SDS011;63641;46.526;24.612;2023-06-22T13:16:50;7.63;;;6.07;;
75061;SDS011;63641;46.526;24.612;2023-06-22T13:19:16;6.20;;;5.72;;
75061;SDS011;63641;46.526;24.612;2023-06-22T13:21:51;6.05;;;5.55;;
75061;SDS011;63641;46.526;24.612;2023-06-22T13:24:18;6.55;;;5.93;;
75061;SDS011;63641;46.526;24.612;2023-06-22T13:26:44;6.80;;;6.10;;
75061;SDS011;63641;46.526;24.612;2023-06-22T13:29:17;6.32;;;5.80;;
75061;SDS011;63641;46.526;24.612;2023-06-22T13:31:44;6.30;;;5.80;;
75061;SDS011;63641;46.526;24.612;2023-06-22T13:34:11;6.28;;;5.45;;
75061;SDS011;63641;46.526;24.612;2023-06-22T13:39:12;6.35;;;5.78;;
75061;SDS011;63641;46.526;24.612;2023-06-22T13:41:38;6.30;;;5.70;;
75061;SDS011;63641;46.526;24.612;2023-06-22T13:44:12;7.55;;;6.15;;
75061;SDS011;63641;46.526;24.612;2023-06-22T13:46:39;5.97;;;5.47;;
75061;SDS011;63641;46.526;24.612;2023-06-22T13:49:06;10.95;;;9.95;;
75061;SDS011;63641;46.526;24.612;2023-06-22T13:51:39;7.32;;;6.65;;
75061;SDS011;63641;46.526;24.612;2023-06-22T13:54:06;6.95;;;6.32;;
75061;SDS011;63641;46.526;24.612;2023-06-22T13:56:50;6.28;;;5.68;;
75061;SDS011;63641;46.526;24.612;2023-06-22T13:59:23;7.63;;;6.38;;
75061;SDS011;63641;46.526;24.612;2023-06-22T14:01:50;6.93;;;6.32;;
75061;SDS011;63641;46.526;24.612;2023-06-22T14:04:17;8.23;;;6.05;;
75061;SDS011;63641;46.526;24.612;2023-06-22T14:06:51;8.55;;;6.45;;
75061;SDS011;63641;46.526;24.612;2023-06-22T14:09:22;7.05;;;6.45;;
75061;SDS011;63641;46.526;24.612;2023-06-22T14:11:49;7.05;;;6.43;;
75061;SDS011;63641;46.526;24.612;2023-06-22T14:14:22;7.00;;;6.30;;
75061;SDS011;63641;46.526;24.612;2023-06-22T14:17:02;7.18;;;6.57;;
75061;SDS011;63641;46.526;24.612;2023-06-22T14:19:36;8.07;;;6.15;;
75061;SDS011;63641;46.526;24.612;2023-06-22T14:22:03;6.93;;;6.32;;
75061;SDS011;63641;46.526;24.612;2023-06-22T14:24:30;6.68;;;6.18;;
75061;SDS011;63641;46.526;24.612;2023-06-22T14:27:03;7.03;;;6.30;;
75061;SDS011;63641;46.526;24.612;2023-06-22T14:29:34;7.03;;;6.32;;
75061;SDS011;63641;46.526;24.612;2023-06-22T14:32:01;7.80;;;6.68;;
75061;SDS011;63641;46.526;24.612;2023-06-22T14:34:28;7.20;;;6.57;;
75061;SDS011;63641;46.526;24.612;2023-06-22T14:36:55;6.70;;;6.20;;
75061;SDS011;63641;46.526;24.612;2023-06-22T14:39:21;6.80;;;6.25;;
75061;SDS011;63641;46.526;24.612;2023-06-22T14:41:48;7.90;;;6.95;;
75061;SDS011;63641;46.526;24.612;2023-06-22T14:44:15;7.68;;;7.07;;
75061;SDS011;63641;46.526;24.612;2023-06-22T14:46:42;8.50;;;7.70;;
75061;SDS011;63641;46.526;24.612;2023-06-22T14:49:09;8.55;;;7.38;;
75061;SDS011;63641;46.526;24.612;2023-06-22T14:51:35;8.10;;;7.50;;
75061;SDS011;63641;46.526;24.612;2023-06-22T14:54:02;6.82;;;6.18;;
75061;SDS011;63641;46.526;24.612;2023-06-22T14:56:29;9.43;;;8.63;;
75061;SDS011;63641;46.526;24.612;2023-06-22T14:58:58;7.72;;;6.32;;
75061;SDS011;63641;46.526;24.612;2023-06-22T15:01:24;6.68;;;6.05;;
75061;SDS011;63641;46.526;24.612;2023-06-22T15:03:51;6.75;;;5.57;;
75061;SDS011;63641;46.526;24.612;2023-06-22T15:06:18;6.53;;;5.93;;
75061;SDS011;63641;46.526;24.612;2023-06-22T15:08:45;6.88;;;6.28;;
75061;SDS011;63641;46.526;24.612;2023-06-22T15:11:11;6.18;;;5.70;;
75061;SDS011;63641;46.526;24.612;2023-06-22T15:13:39;6.43;;;5.82;;
75061;SDS011;63641;46.526;24.612;2023-06-22T15:16:07;6.45;;;5.85;;
75061;SDS011;63641;46.526;24.612;2023-06-22T15:18:34;6.32;;;5.82;;
75061;SDS011;63641;46.526;24.612;2023-06-22T15:21:02;6.10;;;5.60;;
75061;SDS011;63641;46.526;24.612;2023-06-22T15:23:31;7.65;;;5.70;;
75061;SDS011;63641;46.526;24.612;2023-06-22T15:26:01;7.43;;;5.18;;
75061;SDS011;63641;46.526;24.612;2023-06-22T15:28:31;5.18;;;4.50;;
75061;SDS011;63641;46.526;24.612;2023-06-22T15:31:03;4.45;;;4.05;;
75061;SDS011;63641;46.526;24.612;2023-06-22T15:33:31;6.60;;;4.90;;
75061;SDS011;63641;46.526;24.612;2023-06-22T15:35:58;5.47;;;4.25;;